sensor_id;sensor_type;location;lat;lon;timestamp;P1;durP1;ratioP1;P2;durP2;ratioP2
6999;SDS011;3540;53.242;10.408;2023-04-08T00:00:34;18.70;;;12.10;;
6999;SDS011;3540;53.242;10.408;2023-04-08T00:03:00;17.23;;;12.30;;
6999;SDS011;3540;53.242;10.408;2023-04-08T00:05:26;18.90;;;12.03;;
6999;SDS011;3540;53.242;10.408;2023-04-08T00:07:52;19.03;;;12.23;;
6999;SDS011;3540;53.242;10.408;2023-04-08T00:10:18;18.57;;;12.73;;
6999;SDS011;3540;53.242;10.408;2023-04-08T00:12:44;23.53;;;13.43;;
6999;SDS011;3540;53.242;10.408;2023-04-08T00:15:11;19.57;;;13.30;;
6999;SDS011;3540;53.242;10.408;2023-04-08T00:17:37;20.73;;;12.70;;
6999;SDS011;3540;53.242;10.408;2023-04-08T00:20:03;22.47;;;12.93;;
6999;SDS011;3540;53.242;10.408;2023-04-08T00:22:29;22.20;;;13.50;;
6999;SDS011;3540;53.242;10.408;2023-04-08T00:24:56;21.60;;;13.23;;
6999;SDS011;3540;53.242;10.408;2023-04-08T00:27:22;19.90;;;12.83;;
6999;SDS011;3540;53.242;10.408;2023-04-08T00:29:49;19.07;;;12.93;;
6999;SDS011;3540;53.242;10.408;2023-04-08T00:32:15;21.67;;;12.67;;
6999;SDS011;3540;53.242;10.408;2023-04-08T00:34:41;19.73;;;13.60;;
6999;SDS011;3540;53.242;10.408;2023-04-08T00:37:07;19.43;;;12.30;;
6999;SDS011;3540;53.242;10.408;2023-04-08T00:39:33;20.70;;;13.30;;
6999;SDS011;3540;53.242;10.408;2023-04-08T00:41:58;20.37;;;12.87;;
6999;SDS011;3540;53.242;10.408;2023-04-08T00:44:25;23.40;;;13.03;;
6999;SDS011;3540;53.242;10.408;2023-04-08T00:46:51;20.60;;;13.90;;
6999;SDS011;3540;53.242;10.408;2023-04-08T00:49:17;21.57;;;13.43;;
6999;SDS011;3540;53.242;10.408;2023-04-08T00:51:43;22.63;;;13.57;;
6999;SDS011;3540;53.242;10.408;2023-04-08T00:54:09;20.47;;;12.80;;
6999;SDS011;3540;53.242;10.408;2023-04-08T00:56:35;20.00;;;13.83;;
6999;SDS011;3540;53.242;10.408;2023-04-08T00:59:01;21.37;;;13.70;;
6999;SDS011;3540;53.242;10.408;2023-04-08T01:03:57;20.33;;;13.23;;
6999;SDS011;3540;53.242;10.408;2023-04-08T01:06:31;17.97;;;12.67;;
6999;SDS011;3540;53.242;10.408;2023-04-08T01:09:20;19.27;;;12.90;;
6999;SDS011;3540;53.242;10.408;2023-04-08T01:11:49;19.50;;;12.30;;
6999;SDS011;3540;53.242;10.408;2023-04-08T01:14:18;18.77;;;11.93;;
6999;SDS011;3540;53.242;10.408;2023-04-08T01:16:47;21.47;;;13.17;;
6999;SDS011;3540;53.242;10.408;2023-04-08T01:19:22;19.13;;;11.67;;
6999;SDS011;3540;53.242;10.408;2023-04-08T01:21:57;15.93;;;11.70;;
6999;SDS011;3540;53.242;10.408;2023-04-08T01:24:30;17.30;;;11.93;;
6999;SDS011;3540;53.242;10.408;2023-04-08T01:27:00;19.20;;;11.90;;
6999;SDS011;3540;53.242;10.408;2023-04-08T01:29:27;18.57;;;12.07;;
6999;SDS011;3540;53.242;10.408;2023-04-08T01:31:54;17.33;;;11.13;;
6999;SDS011;3540;53.242;10.408;2023-04-08T01:34:21;18.40;;;11.57;;
6999;SDS011;3540;53.242;10.408;2023-04-08T01:36:48;16.33;;;10.97;;
6999;SDS011;3540;53.242;10.408;2023-04-08T01:39:15;18.80;;;11.47;;
6999;SDS011;3540;53.242;10.408;2023-04-08T01:41:42;19.00;;;11.80;;
6999;SDS011;3540;53.242;10.408;2023-04-08T01:44:09;17.67;;;11.47;;
6999;SDS011;3540;53.242;10.408;2023-04-08T01:46:36;17.07;;;11.37;;
6999;SDS011;3540;53.242;10.408;2023-04-08T01:49:02;19.60;;;12.30;;
6999;SDS011;3540;53.242;10.408;2023-04-08T01:51:30;20.43;;;11.63;;
6999;SDS011;3540;53.242;10.408;2023-04-08T01:53:58;17.07;;;10.67;;
6999;SDS011;3540;53.242;10.408;2023-04-08T01:56:23;18.03;;;11.73;;
6999;SDS011;3540;53.242;10.408;2023-04-08T01:58:53;17.17;;;11.13;;
6999;SDS011;3540;53.242;10.408;2023-04-08T02:01:21;21.90;;;11.40;;
6999;SDS011;3540;53.242;10.408;2023-04-08T02:03:50;19.20;;;11.20;;
6999;SDS011;3540;53.242;10.408;2023-04-08T02:06:21;14.60;;;10.17;;
6999;SDS011;3540;53.242;10.408;2023-04-08T02:08:47;20.03;;;11.20;;
6999;SDS011;3540;53.242;10.408;2023-04-08T02:11:13;17.10;;;10.33;;
6999;SDS011;3540;53.242;10.408;2023-04-08T02:13:38;16.27;;;11.33;;
6999;SDS011;3540;53.242;10.408;2023-04-08T02:18:46;17.53;;;10.93;;
6999;SDS011;3540;53.242;10.408;2023-04-08T02:21:35;16.40;;;10.93;;
6999;SDS011;3540;53.242;10.408;2023-04-08T02:24:07;15.63;;;10.23;;
6999;SDS011;3540;53.242;10.408;2023-04-08T02:26:36;17.53;;;11.40;;
6999;SDS011;3540;53.242;10.408;2023-04-08T02:29:03;17.63;;;11.80;;
6999;SDS011;3540;53.242;10.408;2023-04-08T02:31:30;18.27;;;11.40;;
6999;SDS011;3540;53.242;10.408;2023-04-08T02:33:58;15.57;;;10.83;;
6999;SDS011;3540;53.242;10.408;2023-04-08T02:36:24;14.83;;;10.20;;
6999;SDS011;3540;53.242;10.408;2023-04-08T02:38:50;15.37;;;10.57;;
6999;SDS011;3540;53.242;10.408;2023-04-08T02:41:16;18.67;;;11.63;;
6999;SDS011;3540;53.242;10.408;2023-04-08T02:43:42;15.13;;;10.73;;
6999;SDS011;3540;53.242;10.408;2023-04-08T02:46:07;18.40;;;10.90;;
6999;SDS011;3540;53.242;10.408;2023-04-08T02:48:35;17.93;;;11.50;;
6999;SDS011;3540;53.242;10.408;2023-04-08T02:51:00;19.57;;;11.70;;
6999;SDS011;3540;53.242;10.408;2023-04-08T02:53:26;16.03;;;11.07;;
6999;SDS011;3540;53.242;10.408;2023-04-08T02:55:52;17.30;;;11.17;;
6999;SDS011;3540;53.242;10.408;2023-04-08T02:58:17;14.83;;;10.67;;
6999;SDS011;3540;53.242;10.408;2023-04-08T03:00:43;17.07;;;11.07;;
6999;SDS011;3540;53.242;10.408;2023-04-08T03:03:09;17.37;;;11.20;;
6999;SDS011;3540;53.242;10.408;2023-04-08T03:05:35;17.20;;;11.53;;
6999;SDS011;3540;53.242;10.408;2023-04-08T03:08:00;15.27;;;10.87;;
6999;SDS011;3540;53.242;10.408;2023-04-08T03:10:26;16.13;;;11.23;;
6999;SDS011;3540;53.242;10.408;2023-04-08T03:12:52;16.97;;;11.33;;
6999;SDS011;3540;53.242;10.408;2023-04-08T03:15:17;17.60;;;11.37;;
6999;SDS011;3540;53.242;10.408;2023-04-08T03:17:43;17.07;;;12.00;;
6999;SDS011;3540;53.242;10.408;2023-04-08T03:20:09;18.00;;;11.63;;
6999;SDS011;3540;53.242;10.408;2023-04-08T03:22:35;17.73;;;12.47;;
6999;SDS011;3540;53.242;10.408;2023-04-08T03:25:01;20.80;;;12.13;;
6999;SDS011;3540;53.242;10.408;2023-04-08T03:27:28;19.50;;;12.03;;
6999;SDS011;3540;53.242;10.408;2023-04-08T03:29:53;20.30;;;12.90;;
6999;SDS011;3540;53.242;10.408;2023-04-08T03:32:21;20.00;;;12.67;;
6999;SDS011;3540;53.242;10.408;2023-04-08T03:34:47;19.53;;;12.17;;
6999;SDS011;3540;53.242;10.408;2023-04-08T03:37:15;18.60;;;12.90;;
6999;SDS011;3540;53.242;10.408;2023-04-08T03:39:41;18.53;;;12.10;;
6999;SDS011;3540;53.242;10.408;2023-04-08T03:42:07;20.63;;;11.87;;
6999;SDS011;3540;53.242;10.408;2023-04-08T03:44:32;19.63;;;12.43;;
6999;SDS011;3540;53.242;10.408;2023-04-08T03:46:58;18.87;;;12.63;;
6999;SDS011;3540;53.242;10.408;2023-04-08T03:49:23;20.40;;;12.60;;
6999;SDS011;3540;53.242;10.408;2023-04-08T03:51:49;24.30;;;12.77;;
6999;SDS011;3540;53.242;10.408;2023-04-08T03:54:15;19.07;;;13.00;;
6999;SDS011;3540;53.242;10.408;2023-04-08T03:56:40;21.50;;;12.63;;
6999;SDS011;3540;53.242;10.408;2023-04-08T03:59:06;21.97;;;13.67;;
6999;SDS011;3540;53.242;10.408;2023-04-08T04:01:32;24.07;;;13.63;;
6999;SDS011;3540;53.242;10.408;2023-04-08T04:03:57;19.23;;;12.63;;
6999;SDS011;3540;53.242;10.408;2023-04-08T04:06:23;19.47;;;12.87;;
6999;SDS011;3540;53.242;10.408;2023-04-08T04:08:48;18.60;;;12.57;;
6999;SDS011;3540;53.242;10.408;2023-04-08T04:11:15;21.47;;;13.33;;
6999;SDS011;3540;53.242;10.408;2023-04-08T04:13:40;21.27;;;13.40;;
6999;SDS011;3540;53.242;10.408;2023-04-08T04:16:06;22.90;;;13.30;;
6999;SDS011;3540;53.242;10.408;2023-04-08T04:18:31;20.53;;;14.30;;
6999;SDS011;3540;53.242;10.408;2023-04-08T04:20:57;21.77;;;13.67;;
6999;SDS011;3540;53.242;10.408;2023-04-08T04:23:23;20.27;;;13.57;;
6999;SDS011;3540;53.242;10.408;2023-04-08T04:25:49;20.60;;;13.87;;
6999;SDS011;3540;53.242;10.408;2023-04-08T04:28:15;21.37;;;13.90;;
6999;SDS011;3540;53.242;10.408;2023-04-08T04:30:41;21.77;;;14.00;;
6999;SDS011;3540;53.242;10.408;2023-04-08T04:33:06;19.87;;;13.10;;
6999;SDS011;3540;53.242;10.408;2023-04-08T04:35:32;18.33;;;12.53;;
6999;SDS011;3540;53.242;10.408;2023-04-08T04:37:58;17.37;;;12.10;;
6999;SDS011;3540;53.242;10.408;2023-04-08T04:40:23;17.80;;;12.33;;
6999;SDS011;3540;53.242;10.408;2023-04-08T04:42:49;18.53;;;12.37;;
6999;SDS011;3540;53.242;10.408;2023-04-08T04:45:15;15.07;;;11.70;;
6999;SDS011;3540;53.242;10.408;2023-04-08T04:47:40;18.63;;;12.63;;
6999;SDS011;3540;53.242;10.408;2023-04-08T04:50:06;19.43;;;13.23;;
6999;SDS011;3540;53.242;10.408;2023-04-08T04:52:32;18.00;;;12.57;;
6999;SDS011;3540;53.242;10.408;2023-04-08T04:55:00;17.57;;;12.40;;
6999;SDS011;3540;53.242;10.408;2023-04-08T04:57:25;21.37;;;13.10;;
6999;SDS011;3540;53.242;10.408;2023-04-08T04:59:51;20.33;;;13.00;;
6999;SDS011;3540;53.242;10.408;2023-04-08T05:02:17;18.33;;;12.83;;
6999;SDS011;3540;53.242;10.408;2023-04-08T05:04:42;18.93;;;13.50;;
6999;SDS011;3540;53.242;10.408;2023-04-08T05:07:08;23.27;;;12.97;;
6999;SDS011;3540;53.242;10.408;2023-04-08T05:09:33;19.77;;;13.23;;
6999;SDS011;3540;53.242;10.408;2023-04-08T05:11:59;19.03;;;13.47;;
6999;SDS011;3540;53.242;10.408;2023-04-08T05:14:27;17.13;;;12.10;;
6999;SDS011;3540;53.242;10.408;2023-04-08T05:16:53;18.40;;;12.17;;
6999;SDS011;3540;53.242;10.408;2023-04-08T05:19:19;21.53;;;12.77;;
6999;SDS011;3540;53.242;10.408;2023-04-08T05:21:45;21.07;;;13.57;;
6999;SDS011;3540;53.242;10.408;2023-04-08T05:24:10;20.93;;;12.97;;
6999;SDS011;3540;53.242;10.408;2023-04-08T05:26:36;17.37;;;12.70;;
6999;SDS011;3540;53.242;10.408;2023-04-08T05:29:02;21.10;;;13.37;;
6999;SDS011;3540;53.242;10.408;2023-04-08T05:31:27;17.17;;;12.67;;
6999;SDS011;3540;53.242;10.408;2023-04-08T05:33:53;19.50;;;13.00;;
6999;SDS011;3540;53.242;10.408;2023-04-08T05:36:19;22.20;;;14.40;;
6999;SDS011;3540;53.242;10.408;2023-04-08T05:38:44;26.37;;;14.13;;
6999;SDS011;3540;53.242;10.408;2023-04-08T05:41:10;22.70;;;13.90;;
6999;SDS011;3540;53.242;10.408;2023-04-08T05:43:35;22.83;;;14.50;;
6999;SDS011;3540;53.242;10.408;2023-04-08T05:46:07;23.07;;;13.73;;
6999;SDS011;3540;53.242;10.408;2023-04-08T05:48:34;17.97;;;12.93;;
6999;SDS011;3540;53.242;10.408;2023-04-08T05:51:00;17.00;;;13.10;;
6999;SDS011;3540;53.242;10.408;2023-04-08T05:53:26;18.23;;;12.93;;
6999;SDS011;3540;53.242;10.408;2023-04-08T05:55:51;22.07;;;13.73;;
6999;SDS011;3540;53.242;10.408;2023-04-08T05:58:17;19.87;;;12.90;;
6999;SDS011;3540;53.242;10.408;2023-04-08T06:00:43;20.43;;;13.33;;
6999;SDS011;3540;53.242;10.408;2023-04-08T06:03:08;21.43;;;14.17;;
6999;SDS011;3540;53.242;10.408;2023-04-08T06:05:34;20.27;;;13.17;;
6999;SDS011;3540;53.242;10.408;2023-04-08T06:08:00;19.23;;;13.60;;
6999;SDS011;3540;53.242;10.408;2023-04-08T06:10:25;19.57;;;12.73;;
6999;SDS011;3540;53.242;10.408;2023-04-08T06:12:51;21.70;;;13.63;;
6999;SDS011;3540;53.242;10.408;2023-04-08T06:15:17;26.20;;;14.33;;
6999;SDS011;3540;53.242;10.408;2023-04-08T06:17:42;26.93;;;14.77;;
6999;SDS011;3540;53.242;10.408;2023-04-08T06:20:08;25.13;;;14.60;;
6999;SDS011;3540;53.242;10.408;2023-04-08T06:22:34;23.10;;;14.77;;
6999;SDS011;3540;53.242;10.408;2023-04-08T06:25:00;26.60;;;14.27;;
6999;SDS011;3540;53.242;10.408;2023-04-08T06:27:26;22.13;;;14.83;;
6999;SDS011;3540;53.242;10.408;2023-04-08T06:29:52;27.80;;;15.50;;
6999;SDS011;3540;53.242;10.408;2023-04-08T06:32:19;24.43;;;14.37;;
6999;SDS011;3540;53.242;10.408;2023-04-08T06:34:45;24.87;;;13.80;;
6999;SDS011;3540;53.242;10.408;2023-04-08T06:37:11;25.47;;;14.80;;
6999;SDS011;3540;53.242;10.408;2023-04-08T06:39:37;23.67;;;14.57;;
6999;SDS011;3540;53.242;10.408;2023-04-08T06:42:02;24.30;;;15.33;;
6999;SDS011;3540;53.242;10.408;2023-04-08T06:44:28;21.40;;;14.07;;
6999;SDS011;3540;53.242;10.408;2023-04-08T06:46:54;23.37;;;14.50;;
6999;SDS011;3540;53.242;10.408;2023-04-08T06:49:20;22.97;;;13.17;;
6999;SDS011;3540;53.242;10.408;2023-04-08T06:51:45;24.97;;;13.87;;
6999;SDS011;3540;53.242;10.408;2023-04-08T06:54:11;27.20;;;14.13;;
6999;SDS011;3540;53.242;10.408;2023-04-08T06:56:36;24.83;;;14.43;;
6999;SDS011;3540;53.242;10.408;2023-04-08T06:59:02;19.17;;;12.97;;
6999;SDS011;3540;53.242;10.408;2023-04-08T07:01:28;25.20;;;14.00;;
6999;SDS011;3540;53.242;10.408;2023-04-08T07:03:55;23.40;;;13.73;;
6999;SDS011;3540;53.242;10.408;2023-04-08T07:06:21;23.80;;;13.63;;
6999;SDS011;3540;53.242;10.408;2023-04-08T07:08:47;18.33;;;12.90;;
6999;SDS011;3540;53.242;10.408;2023-04-08T07:11:13;25.53;;;13.67;;
6999;SDS011;3540;53.242;10.408;2023-04-08T07:13:38;25.00;;;14.03;;
6999;SDS011;3540;53.242;10.408;2023-04-08T07:16:04;21.97;;;13.43;;
6999;SDS011;3540;53.242;10.408;2023-04-08T07:18:31;23.63;;;14.23;;
6999;SDS011;3540;53.242;10.408;2023-04-08T07:20:56;23.37;;;14.40;;
6999;SDS011;3540;53.242;10.408;2023-04-08T07:23:24;23.53;;;14.17;;
6999;SDS011;3540;53.242;10.408;2023-04-08T07:25:50;20.80;;;14.00;;
6999;SDS011;3540;53.242;10.408;2023-04-08T07:28:16;20.77;;;13.60;;
6999;SDS011;3540;53.242;10.408;2023-04-08T07:30:42;18.43;;;12.83;;
6999;SDS011;3540;53.242;10.408;2023-04-08T07:33:07;21.50;;;12.97;;
6999;SDS011;3540;53.242;10.408;2023-04-08T07:35:33;21.90;;;13.50;;
6999;SDS011;3540;53.242;10.408;2023-04-08T07:37:59;18.93;;;12.60;;
6999;SDS011;3540;53.242;10.408;2023-04-08T07:40:24;21.13;;;13.27;;
6999;SDS011;3540;53.242;10.408;2023-04-08T07:42:50;20.47;;;12.93;;
6999;SDS011;3540;53.242;10.408;2023-04-08T07:45:16;21.93;;;13.03;;
6999;SDS011;3540;53.242;10.408;2023-04-08T07:47:41;22.37;;;13.37;;
6999;SDS011;3540;53.242;10.408;2023-04-08T07:50:08;22.83;;;12.80;;
6999;SDS011;3540;53.242;10.408;2023-04-08T07:52:34;22.43;;;12.97;;
6999;SDS011;3540;53.242;10.408;2023-04-08T07:55:00;22.63;;;12.20;;
6999;SDS011;3540;53.242;10.408;2023-04-08T07:57:26;22.97;;;13.37;;
6999;SDS011;3540;53.242;10.408;2023-04-08T07:59:51;22.20;;;13.20;;
6999;SDS011;3540;53.242;10.408;2023-04-08T08:02:17;24.70;;;13.87;;
6999;SDS011;3540;53.242;10.408;2023-04-08T08:04:42;22.90;;;13.47;;
6999;SDS011;3540;53.242;10.408;2023-04-08T08:07:08;22.73;;;13.70;;
6999;SDS011;3540;53.242;10.408;2023-04-08T08:09:33;24.70;;;13.93;;
6999;SDS011;3540;53.242;10.408;2023-04-08T08:11:59;27.57;;;15.03;;
6999;SDS011;3540;53.242;10.408;2023-04-08T08:14:25;21.03;;;13.80;;
6999;SDS011;3540;53.242;10.408;2023-04-08T08:16:51;25.73;;;14.47;;
6999;SDS011;3540;53.242;10.408;2023-04-08T08:19:18;25.27;;;14.20;;
6999;SDS011;3540;53.242;10.408;2023-04-08T08:21:44;24.60;;;15.27;;
6999;SDS011;3540;53.242;10.408;2023-04-08T08:24:10;20.73;;;14.00;;
6999;SDS011;3540;53.242;10.408;2023-04-08T08:26:36;20.80;;;13.57;;
6999;SDS011;3540;53.242;10.408;2023-04-08T08:29:02;23.57;;;13.77;;
6999;SDS011;3540;53.242;10.408;2023-04-08T08:31:28;22.77;;;13.80;;
6999;SDS011;3540;53.242;10.408;2023-04-08T08:33:54;21.30;;;13.57;;
6999;SDS011;3540;53.242;10.408;2023-04-08T08:36:20;26.60;;;15.17;;
6999;SDS011;3540;53.242;10.408;2023-04-08T08:38:45;20.97;;;14.47;;
6999;SDS011;3540;53.242;10.408;2023-04-08T08:41:11;23.37;;;14.37;;
6999;SDS011;3540;53.242;10.408;2023-04-08T08:43:37;25.93;;;15.20;;
6999;SDS011;3540;53.242;10.408;2023-04-08T08:46:02;23.90;;;14.10;;
6999;SDS011;3540;53.242;10.408;2023-04-08T08:48:28;22.07;;;13.67;;
6999;SDS011;3540;53.242;10.408;2023-04-08T08:50:55;24.90;;;15.20;;
6999;SDS011;3540;53.242;10.408;2023-04-08T08:53:25;23.00;;;14.30;;
6999;SDS011;3540;53.242;10.408;2023-04-08T08:55:54;27.60;;;14.77;;
6999;SDS011;3540;53.242;10.408;2023-04-08T08:58:20;23.23;;;14.17;;
6999;SDS011;3540;53.242;10.408;2023-04-08T09:00:46;21.97;;;13.57;;
6999;SDS011;3540;53.242;10.408;2023-04-08T09:05:47;24.37;;;13.70;;
6999;SDS011;3540;53.242;10.408;2023-04-08T09:11:09;21.80;;;12.83;;
6999;SDS011;3540;53.242;10.408;2023-04-08T09:13:38;23.00;;;13.17;;
6999;SDS011;3540;53.242;10.408;2023-04-08T09:16:05;23.70;;;13.73;;
6999;SDS011;3540;53.242;10.408;2023-04-08T09:18:33;25.47;;;14.43;;
6999;SDS011;3540;53.242;10.408;2023-04-08T09:21:01;28.67;;;14.20;;
6999;SDS011;3540;53.242;10.408;2023-04-08T09:26:11;26.47;;;15.13;;
6999;SDS011;3540;53.242;10.408;2023-04-08T09:28:42;24.53;;;14.83;;
6999;SDS011;3540;53.242;10.408;2023-04-08T09:31:18;24.13;;;14.87;;
6999;SDS011;3540;53.242;10.408;2023-04-08T09:33:51;26.20;;;14.83;;
6999;SDS011;3540;53.242;10.408;2023-04-08T09:36:18;29.73;;;15.07;;
6999;SDS011;3540;53.242;10.408;2023-04-08T09:38:44;21.80;;;14.07;;
6999;SDS011;3540;53.242;10.408;2023-04-08T09:41:14;27.80;;;15.23;;
6999;SDS011;3540;53.242;10.408;2023-04-08T09:43:46;22.63;;;14.50;;
6999;SDS011;3540;53.242;10.408;2023-04-08T09:46:26;23.93;;;13.60;;
6999;SDS011;3540;53.242;10.408;2023-04-08T09:49:09;22.00;;;13.97;;
6999;SDS011;3540;53.242;10.408;2023-04-08T09:57:12;24.53;;;14.73;;
6999;SDS011;3540;53.242;10.408;2023-04-08T09:59:42;24.13;;;14.57;;
6999;SDS011;3540;53.242;10.408;2023-04-08T10:02:18;32.10;;;15.97;;
6999;SDS011;3540;53.242;10.408;2023-04-08T10:04:55;23.60;;;14.10;;
6999;SDS011;3540;53.242;10.408;2023-04-08T10:07:24;24.80;;;14.93;;
6999;SDS011;3540;53.242;10.408;2023-04-08T10:09:49;23.83;;;14.90;;
6999;SDS011;3540;53.242;10.408;2023-04-08T10:12:16;24.93;;;14.70;;
6999;SDS011;3540;53.242;10.408;2023-04-08T10:14:52;29.80;;;15.60;;
6999;SDS011;3540;53.242;10.408;2023-04-08T10:17:46;21.57;;;14.03;;
6999;SDS011;3540;53.242;10.408;2023-04-08T10:20:54;23.60;;;13.53;;
6999;SDS011;3540;53.242;10.408;2023-04-08T10:23:11;21.07;;;14.07;;
6999;SDS011;3540;53.242;10.408;2023-04-08T10:33:14;23.37;;;13.63;;
6999;SDS011;3540;53.242;10.408;2023-04-08T10:35:41;22.53;;;14.20;;
6999;SDS011;3540;53.242;10.408;2023-04-08T10:38:10;24.30;;;13.07;;
6999;SDS011;3540;53.242;10.408;2023-04-08T10:40:40;23.00;;;12.90;;
6999;SDS011;3540;53.242;10.408;2023-04-08T10:43:07;21.57;;;13.50;;
6999;SDS011;3540;53.242;10.408;2023-04-08T10:45:37;21.77;;;13.63;;
6999;SDS011;3540;53.242;10.408;2023-04-08T10:48:11;21.47;;;13.47;;
6999;SDS011;3540;53.242;10.408;2023-04-08T10:50:37;24.87;;;14.17;;
6999;SDS011;3540;53.242;10.408;2023-04-08T10:53:02;24.27;;;14.23;;
6999;SDS011;3540;53.242;10.408;2023-04-08T10:55:29;21.10;;;14.20;;
6999;SDS011;3540;53.242;10.408;2023-04-08T10:58:03;21.33;;;14.17;;
6999;SDS011;3540;53.242;10.408;2023-04-08T11:00:35;21.83;;;14.37;;
6999;SDS011;3540;53.242;10.408;2023-04-08T11:03:07;24.40;;;14.37;;
6999;SDS011;3540;53.242;10.408;2023-04-08T11:05:34;25.70;;;14.53;;
6999;SDS011;3540;53.242;10.408;2023-04-08T11:08:01;25.07;;;13.73;;
6999;SDS011;3540;53.242;10.408;2023-04-08T11:10:29;24.70;;;13.37;;
6999;SDS011;3540;53.242;10.408;2023-04-08T11:12:56;21.27;;;14.00;;
6999;SDS011;3540;53.242;10.408;2023-04-08T11:15:25;20.00;;;12.17;;
6999;SDS011;3540;53.242;10.408;2023-04-08T11:17:52;21.07;;;13.47;;
6999;SDS011;3540;53.242;10.408;2023-04-08T11:20:19;20.10;;;12.37;;
6999;SDS011;3540;53.242;10.408;2023-04-08T11:22:46;24.43;;;13.33;;
6999;SDS011;3540;53.242;10.408;2023-04-08T11:25:12;21.60;;;13.40;;
6999;SDS011;3540;53.242;10.408;2023-04-08T11:27:38;18.23;;;12.33;;
6999;SDS011;3540;53.242;10.408;2023-04-08T11:30:05;20.07;;;13.00;;
6999;SDS011;3540;53.242;10.408;2023-04-08T11:32:33;20.97;;;12.87;;
6999;SDS011;3540;53.242;10.408;2023-04-08T11:35:06;21.93;;;13.27;;
6999;SDS011;3540;53.242;10.408;2023-04-08T11:37:36;20.70;;;12.93;;
6999;SDS011;3540;53.242;10.408;2023-04-08T11:40:05;24.80;;;14.17;;
6999;SDS011;3540;53.242;10.408;2023-04-08T11:42:35;19.13;;;13.00;;
6999;SDS011;3540;53.242;10.408;2023-04-08T11:45:01;21.87;;;12.87;;
6999;SDS011;3540;53.242;10.408;2023-04-08T11:47:35;20.87;;;12.97;;
6999;SDS011;3540;53.242;10.408;2023-04-08T11:50:01;21.53;;;12.53;;
6999;SDS011;3540;53.242;10.408;2023-04-08T11:52:46;22.13;;;13.23;;
6999;SDS011;3540;53.242;10.408;2023-04-08T11:57:51;20.27;;;12.37;;
6999;SDS011;3540;53.242;10.408;2023-04-08T12:00:18;21.60;;;13.30;;
6999;SDS011;3540;53.242;10.408;2023-04-08T12:02:45;25.47;;;14.70;;
6999;SDS011;3540;53.242;10.408;2023-04-08T12:05:13;22.70;;;14.20;;
6999;SDS011;3540;53.242;10.408;2023-04-08T12:07:40;22.57;;;13.60;;
6999;SDS011;3540;53.242;10.408;2023-04-08T12:10:06;20.80;;;13.90;;
6999;SDS011;3540;53.242;10.408;2023-04-08T12:12:33;24.93;;;13.83;;
6999;SDS011;3540;53.242;10.408;2023-04-08T12:14:58;24.67;;;14.00;;
6999;SDS011;3540;53.242;10.408;2023-04-08T12:17:24;22.07;;;13.83;;
6999;SDS011;3540;53.242;10.408;2023-04-08T12:19:50;27.57;;;14.87;;
6999;SDS011;3540;53.242;10.408;2023-04-08T12:22:15;25.10;;;14.87;;
6999;SDS011;3540;53.242;10.408;2023-04-08T12:24:41;24.57;;;14.53;;
6999;SDS011;3540;53.242;10.408;2023-04-08T12:27:06;27.93;;;14.47;;
6999;SDS011;3540;53.242;10.408;2023-04-08T12:29:32;26.90;;;15.90;;
6999;SDS011;3540;53.242;10.408;2023-04-08T12:31:58;28.97;;;16.23;;
6999;SDS011;3540;53.242;10.408;2023-04-08T12:34:24;23.83;;;15.67;;
6999;SDS011;3540;53.242;10.408;2023-04-08T12:36:50;24.37;;;14.53;;
6999;SDS011;3540;53.242;10.408;2023-04-08T12:39:15;27.30;;;14.53;;
6999;SDS011;3540;53.242;10.408;2023-04-08T12:41:41;23.37;;;15.20;;
6999;SDS011;3540;53.242;10.408;2023-04-08T12:44:06;26.47;;;15.80;;
6999;SDS011;3540;53.242;10.408;2023-04-08T12:46:32;26.40;;;15.33;;
6999;SDS011;3540;53.242;10.408;2023-04-08T12:48:58;30.57;;;16.10;;
6999;SDS011;3540;53.242;10.408;2023-04-08T12:51:24;30.37;;;16.27;;
6999;SDS011;3540;53.242;10.408;2023-04-08T12:53:50;28.27;;;17.17;;
6999;SDS011;3540;53.242;10.408;2023-04-08T12:56:16;29.10;;;16.00;;
6999;SDS011;3540;53.242;10.408;2023-04-08T12:58:42;27.27;;;15.13;;
6999;SDS011;3540;53.242;10.408;2023-04-08T13:01:07;23.37;;;14.43;;
6999;SDS011;3540;53.242;10.408;2023-04-08T13:03:33;22.97;;;14.47;;
6999;SDS011;3540;53.242;10.408;2023-04-08T13:06:00;25.80;;;14.80;;
6999;SDS011;3540;53.242;10.408;2023-04-08T13:08:26;30.13;;;14.93;;
6999;SDS011;3540;53.242;10.408;2023-04-08T13:10:52;22.37;;;14.13;;
6999;SDS011;3540;53.242;10.408;2023-04-08T13:13:18;21.97;;;14.50;;
6999;SDS011;3540;53.242;10.408;2023-04-08T13:15:44;25.77;;;14.77;;
6999;SDS011;3540;53.242;10.408;2023-04-08T13:18:11;24.20;;;14.17;;
6999;SDS011;3540;53.242;10.408;2023-04-08T13:20:36;27.20;;;14.67;;
6999;SDS011;3540;53.242;10.408;2023-04-08T13:23:02;23.90;;;14.43;;
6999;SDS011;3540;53.242;10.408;2023-04-08T13:25:28;25.13;;;14.73;;
6999;SDS011;3540;53.242;10.408;2023-04-08T13:27:53;22.97;;;14.00;;
6999;SDS011;3540;53.242;10.408;2023-04-08T13:30:19;21.87;;;13.97;;
6999;SDS011;3540;53.242;10.408;2023-04-08T13:32:45;21.67;;;13.53;;
6999;SDS011;3540;53.242;10.408;2023-04-08T13:35:10;21.23;;;13.43;;
6999;SDS011;3540;53.242;10.408;2023-04-08T13:37:36;20.17;;;12.93;;
6999;SDS011;3540;53.242;10.408;2023-04-08T13:40:02;21.33;;;13.57;;
6999;SDS011;3540;53.242;10.408;2023-04-08T13:42:28;20.37;;;12.73;;
6999;SDS011;3540;53.242;10.408;2023-04-08T13:44:56;19.33;;;12.40;;
6999;SDS011;3540;53.242;10.408;2023-04-08T13:47:22;21.20;;;11.47;;
6999;SDS011;3540;53.242;10.408;2023-04-08T13:49:48;17.67;;;12.03;;
6999;SDS011;3540;53.242;10.408;2023-04-08T13:52:13;17.57;;;11.43;;
6999;SDS011;3540;53.242;10.408;2023-04-08T13:54:39;20.27;;;13.30;;
6999;SDS011;3540;53.242;10.408;2023-04-08T13:57:05;19.23;;;12.63;;
6999;SDS011;3540;53.242;10.408;2023-04-08T13:59:31;20.10;;;12.43;;
6999;SDS011;3540;53.242;10.408;2023-04-08T14:01:57;20.00;;;12.97;;
6999;SDS011;3540;53.242;10.408;2023-04-08T14:04:22;21.83;;;13.77;;
6999;SDS011;3540;53.242;10.408;2023-04-08T14:06:48;23.43;;;12.67;;
6999;SDS011;3540;53.242;10.408;2023-04-08T14:09:18;23.30;;;13.40;;
6999;SDS011;3540;53.242;10.408;2023-04-08T14:11:44;20.03;;;12.70;;
6999;SDS011;3540;53.242;10.408;2023-04-08T14:14:11;22.37;;;13.07;;
6999;SDS011;3540;53.242;10.408;2023-04-08T14:16:36;22.90;;;13.93;;
6999;SDS011;3540;53.242;10.408;2023-04-08T14:19:02;21.67;;;12.67;;
6999;SDS011;3540;53.242;10.408;2023-04-08T14:21:29;23.23;;;13.10;;
6999;SDS011;3540;53.242;10.408;2023-04-08T14:23:55;21.00;;;12.00;;
6999;SDS011;3540;53.242;10.408;2023-04-08T14:26:21;18.97;;;12.63;;
6999;SDS011;3540;53.242;10.408;2023-04-08T14:28:47;21.00;;;12.33;;
6999;SDS011;3540;53.242;10.408;2023-04-08T14:31:13;19.40;;;12.27;;
6999;SDS011;3540;53.242;10.408;2023-04-08T14:33:39;22.83;;;12.63;;
6999;SDS011;3540;53.242;10.408;2023-04-08T14:36:06;17.13;;;12.30;;
6999;SDS011;3540;53.242;10.408;2023-04-08T14:38:32;20.93;;;12.20;;
6999;SDS011;3540;53.242;10.408;2023-04-08T14:40:58;21.83;;;12.23;;
6999;SDS011;3540;53.242;10.408;2023-04-08T14:43:23;20.67;;;11.70;;
6999;SDS011;3540;53.242;10.408;2023-04-08T14:45:49;18.97;;;12.63;;
6999;SDS011;3540;53.242;10.408;2023-04-08T14:48:18;22.27;;;12.47;;
6999;SDS011;3540;53.242;10.408;2023-04-08T14:50:44;21.97;;;12.43;;
6999;SDS011;3540;53.242;10.408;2023-04-08T14:53:10;19.83;;;12.73;;
6999;SDS011;3540;53.242;10.408;2023-04-08T14:55:35;19.93;;;13.17;;
6999;SDS011;3540;53.242;10.408;2023-04-08T14:58:02;22.43;;;13.43;;
6999;SDS011;3540;53.242;10.408;2023-04-08T15:00:28;18.87;;;13.07;;